Time;durP1;ratioP1;P1;durP2;ratioP2;P2;SDS_P1;SDS_P2;PMS_P1;PMS_P2;Temp;Humidity;BMP_temperature;BMP_pressure;BME280_temperature;BME280_humidity;BME280_pressure;Samples;Min_cycle;Max_cycle;Signal;HPM_P1;HPM_P2
2022/12/07 00:01:39;;;;;;;15.77;11.27;;;;;;;-4.81;94.86;101234.19;5034756;28;20029;-71
2022/12/07 00:04:06;;;;;;;16.92;12.02;;;;;;;-4.76;94.38;101234.03;5033761;28;20068;-70
2022/12/07 00:06:40;;;;;;;15.32;11.35;;;;;;;-4.75;95.24;101239.16;5032950;28;20530;-72
2022/12/07 00:09:09;;;;;;;16.33;10.00;;;;;;;-4.75;94.68;101223.56;5032778;28;20033;-70
2022/12/07 00:11:35;;;;;;;;;;;;;;;-4.69;94.51;101238.09;5033544;28;20129;-72
2022/12/07 00:14:03;;;;;;;17.27;10.47;;;;;;;-4.80;93.62;101246.28;5032975;28;20269;-72
2022/12/07 00:16:31;;;;;;;19.48;11.95;;;;;;;-4.86;94.57;101224.84;5032782;28;20029;-73
2022/12/07 00:18:59;;;;;;;16.77;12.77;;;;;;;-4.88;94.67;101235.31;5032678;28;20063;-72
2022/12/07 00:21:29;;;;;;;15.50;10.75;;;;;;;-5.02;94.96;101225.38;5033266;28;20392;-71
2022/12/07 00:23:56;;;;;;;18.58;11.45;;;;;;;-4.92;94.97;101219.84;5032214;28;20477;-72
2022/12/07 00:26:27;;;;;;;21.40;13.57;;;;;;;-4.88;95.30;101224.91;5033518;28;20036;-71
2022/12/07 00:28:58;;;;;;;18.83;12.77;;;;;;;-4.87;94.99;101223.16;5033011;28;20326;-71
2022/12/07 00:31:29;;;;;;;18.80;12.25;;;;;;;-4.85;95.14;101221.34;5031507;28;20090;-71
2022/12/07 00:33:55;;;;;;;16.17;11.55;;;;;;;-4.83;95.09;101220.41;5032754;28;20079;-71
2022/12/07 00:36:22;;;;;;;19.43;13.47;;;;;;;-4.83;94.77;101230.78;5032154;28;20025;-70
2022/12/07 00:38:48;;;;;;;17.45;12.93;;;;;;;-4.84;95.78;101229.09;5032076;28;20022;-71
2022/12/07 00:41:16;;;;;;;19.53;11.90;;;;;;;-4.84;95.45;101229.09;5032026;28;20040;-71
2022/12/07 00:43:44;;;;;;;18.63;12.38;;;;;;;-4.79;95.43;101221.13;5031853;28;20045;-71
2022/12/07 00:46:10;;;;;;;17.95;13.93;;;;;;;-4.67;94.98;101233.69;5032240;28;20074;-70
2022/12/07 00:48:36;;;;;;;18.20;13.03;;;;;;;-4.69;94.51;101230.28;5031951;28;20030;-72
2022/12/07 00:51:02;;;;;;;21.30;12.03;;;;;;;-4.75;95.42;101223.56;5031953;28;20332;-71
2022/12/07 00:53:28;;;;;;;20.42;13.15;;;;;;;-4.70;95.46;101232.03;5031683;28;20032;-72
2022/12/07 00:56:23;;;;;;;19.33;12.25;;;;;;;-4.72;94.95;101225.22;5032150;28;20045;-71
2022/12/07 00:58:53;;;;;;;16.27;12.13;;;;;;;-4.64;95.48;101235.31;5032022;28;20079;-72
2022/12/07 01:01:19;;;;;;;19.05;11.95;;;;;;;-4.76;95.98;101221.88;5032334;28;20028;-71
2022/12/07 01:03:44;;;;;;;17.90;12.47;;;;;;;-4.66;95.50;101243.19;5031902;28;20025;-71
2022/12/07 01:06:15;;;;;;;16.03;11.40;;;;;;;-4.72;96.46;101230.41;5031662;28;20037;-72
2022/12/07 01:08:40;;;;;;;17.20;12.00;;;;;;;-4.70;96.10;101229.44;5030217;28;20033;-70
2022/12/07 01:11:07;;;;;;;19.27;12.17;;;;;;;-4.58;95.63;101238.56;5031841;28;20040;-71
2022/12/07 01:13:36;;;;;;;14.63;11.68;;;;;;;-4.68;95.52;101216.41;5031544;28;20099;-72
2022/12/07 01:16:04;;;;;;;17.75;11.48;;;;;;;-4.55;95.92;101241.06;5031591;28;20076;-72
2022/12/07 01:18:34;;;;;;;21.30;13.80;;;;;;;-4.59;96.07;101233.44;5031531;28;20083;-72
2022/12/07 01:21:02;;;;;;;19.05;11.90;;;;;;;-4.61;95.43;101237.84;5031571;28;20036;-71
2022/12/07 01:23:29;;;;;;;15.60;10.95;;;;;;;-4.64;95.31;101232.72;5031753;28;20073;-72
2022/12/07 01:25:58;;;;;;;18.92;11.43;;;;;;;-4.63;95.03;101237.88;5031844;28;20029;-72
2022/12/07 01:28:24;;;;;;;16.20;10.38;;;;;;;-4.59;95.26;101233.44;5031840;28;20029;-72
2022/12/07 01:30:56;;;;;;;19.00;11.73;;;;;;;-4.51;95.64;101218.41;5031597;28;20037;-71
2022/12/07 01:33:21;;;;;;;14.18;11.32;;;;;;;-4.41;94.62;101237.94;5046888;28;20039;-72
2022/12/07 01:35:47;;;;;;;16.10;11.60;;;;;;;-4.47;94.78;101227.78;5031610;28;20030;-71
2022/12/07 01:38:12;;;;;;;15.03;9.93;;;;;;;-4.51;94.22;101213.19;5031585;28;20037;-72
2022/12/07 01:40:38;;;;;;;15.30;9.97;;;;;;;-4.47;94.72;101227.78;5031629;28;20365;-70
2022/12/07 01:43:14;;;;;;;11.90;9.40;;;;;;;-4.43;94.30;101229.34;5031583;28;20094;-71
2022/12/07 01:45:41;;;;;;;14.02;10.27;;;;;;;-4.39;94.35;101231.78;5031735;28;20045;-72
2022/12/07 01:48:10;;;;;;;14.82;10.15;;;;;;;-4.44;94.03;101227.66;5034312;28;20432;-70
2022/12/07 01:50:37;;;;;;;13.98;10.00;;;;;;;-4.38;93.76;101233.47;5035338;28;20021;-71
2022/12/07 01:53:06;;;;;;;13.88;10.38;;;;;;;-4.36;93.82;101221.28;5035276;28;20370;-72
2022/12/07 01:55:34;;;;;;;14.77;9.73;;;;;;;-4.41;93.37;101211.94;5035357;28;20092;-71
2022/12/07 01:57:59;;;;;;;14.50;9.85;;;;;;;-4.43;92.55;101211.16;5035201;28;20032;-72
2022/12/07 02:00:25;;;;;;;14.97;10.80;;;;;;;-4.39;93.21;101223.13;5034954;28;20025;-72
2022/12/07 02:02:59;;;;;;;14.53;10.90;;;;;;;-4.39;94.30;101225.75;5035214;28;20029;-72
2022/12/07 02:05:26;;;;;;;15.40;10.60;;;;;;;-4.37;93.60;101232.56;5035430;28;20432;-72
2022/12/07 02:07:55;;;;;;;13.13;9.80;;;;;;;-4.35;94.16;101227.31;5035002;28;20033;-72
2022/12/07 02:10:23;;;;;;;18.83;10.35;;;;;;;-4.18;94.32;101230.16;5035257;28;20029;-72
2022/12/07 02:12:53;;;;;;;;;;;;;;;-4.14;93.29;101231.72;5035335;28;20029;-73
2022/12/07 02:15:49;;;;;;;16.85;9.80;;;;;;;-4.29;93.96;101224.50;5034205;28;19909;-71
2022/12/07 02:19:02;;;;;;;12.93;9.68;;;;;;;-4.39;94.86;101230.94;5033529;28;20376;-73
2022/12/07 02:21:41;;;;;;;13.88;9.93;;;;;;;-4.40;95.59;101231.84;4973948;28;20093;-70
2022/12/07 02:24:44;;;;;;;14.30;10.45;;;;;;;-4.31;95.54;101218.53;5032923;28;20033;-73
2022/12/07 02:27:47;;;;;;;14.05;9.93;;;;;;;-4.31;95.21;101208.13;5034684;28;20480;-72
2022/12/07 02:30:18;;;;;;;14.15;10.60;;;;;;;-4.11;95.13;101226.41;5035272;28;20538;-72
2022/12/07 02:33:16;;;;;;;14.45;9.77;;;;;;;-4.17;95.56;101216.25;5034623;28;20496;-72
2022/12/07 02:35:59;;;;;;;16.38;9.85;;;;;;;-4.25;95.98;101218.28;5017472;28;20424;-72
2022/12/07 02:38:30;;;;;;;13.98;9.57;;;;;;;-4.27;96.58;101209.69;5034335;28;20041;-72
2022/12/07 02:40:56;;;;;;;11.68;9.95;;;;;;;-4.31;96.19;101217.69;5033159;28;20129;-71
2022/12/07 02:43:34;;;;;;;13.40;9.30;;;;;;;-4.24;96.09;101219.97;5034251;28;20108;-70
2022/12/07 02:46:04;;;;;;;16.73;10.05;;;;;;;-4.23;96.21;101211.28;5034357;28;20033;-71
2022/12/07 02:48:33;;;;;;;13.57;9.70;;;;;;;-4.28;96.33;101213.22;5034286;28;20029;-71
2022/12/07 02:50:58;;;;;;;13.63;10.50;;;;;;;-4.34;95.66;101202.16;5034030;28;20420;-71
2022/12/07 02:53:41;;;;;;;18.70;12.10;;;;;;;-4.36;96.66;101197.03;5033919;28;20029;-72
2022/12/07 02:56:30;;;;;;;13.25;9.60;;;;;;;-4.29;96.62;101203.72;5034117;28;20021;-71
2022/12/07 02:59:30;;;;;;;14.57;10.02;;;;;;;-4.26;96.57;101203.59;5031408;28;20048;-71
2022/12/07 03:02:23;;;;;;;16.05;10.10;;;;;;;-4.28;96.62;101202.81;5033732;28;20427;-72
2022/12/07 03:05:28;;;;;;;15.27;9.82;;;;;;;-4.22;96.98;101201.72;5033975;28;20033;-71
2022/12/07 03:08:00;;;;;;;12.73;9.75;;;;;;;-4.20;96.03;101203.34;5034282;28;20025;-72
2022/12/07 03:10:25;;;;;;;12.93;9.20;;;;;;;-4.18;96.84;101195.50;5033976;28;20124;-71
2022/12/07 03:13:28;;;;;;;15.17;10.00;;;;;;;-4.12;95.33;101193.50;5034085;28;20060;-72
2022/12/07 03:15:56;;;;;;;13.73;9.27;;;;;;;-4.11;94.97;101204.75;4999569;28;20037;-71
2022/12/07 03:18:26;;;;;;;12.70;9.77;;;;;;;-4.17;94.74;101192.84;5033991;28;20483;-72
2022/12/07 03:20:56;;;;;;;11.63;9.45;;;;;;;-4.23;95.22;101195.66;5033904;28;20049;-72
2022/12/07 03:23:25;;;;;;;14.27;9.02;;;;;;;-4.21;96.12;101199.06;5033692;28;20041;-72
2022/12/07 03:25:58;;;;;;;18.15;10.48;;;;;;;-4.10;95.69;101196.88;5033859;28;20049;-71
2022/12/07 03:28:29;;;;;;;11.93;8.65;;;;;;;-4.09;95.77;101188.16;5032859;28;20030;-73
2022/12/07 03:31:17;;;;;;;14.07;8.63;;;;;;;-4.01;96.95;101200.06;5034000;28;20029;-71
2022/12/07 03:33:49;;;;;;;12.85;9.23;;;;;;;-3.96;96.23;101198.97;5032383;28;20484;-73
2022/12/07 03:36:24;;;;;;;14.07;9.55;;;;;;;-4.01;96.47;101194.88;5032354;28;20042;-71
2022/12/07 03:39:00;;;;;;;12.45;9.43;;;;;;;-4.04;96.44;101194.97;5033776;28;20462;-71
2022/12/07 03:41:30;;;;;;;11.95;8.55;;;;;;;-4.09;97.02;101188.16;5033133;28;20548;-71
2022/12/07 03:43:57;;;;;;;12.57;9.38;;;;;;;-4.12;96.51;101183.09;5033569;28;20071;-72
2022/12/07 03:46:41;;;;;;;12.93;8.43;;;;;;;-4.15;96.54;101190.16;5015842;28;20460;-71
2022/12/07 03:49:13;;;;;;;14.10;9.45;;;;;;;-4.25;96.98;101187.09;5033257;28;20021;-72
2022/12/07 03:51:56;;;;;;;14.13;9.57;;;;;;;-4.58;97.76;101116.41;5033697;28;20416;-71
2022/12/07 03:54:28;;;;;;;10.45;8.43;;;;;;;-4.25;97.65;101161.06;5033610;28;20489;-73
2022/12/07 03:56:55;;;;;;;13.07;9.02;;;;;;;-4.14;96.54;101178.84;5032816;28;20041;-69
2022/12/07 03:59:21;;;;;;;12.52;9.02;;;;;;;-4.33;97.42;101167.50;5033110;28;20095;-70
2022/12/07 04:01:56;;;;;;;11.45;8.02;;;;;;;-4.38;97.84;101172.84;5031796;28;20033;-71
2022/12/07 04:04:25;;;;;;;12.95;8.50;;;;;;;-4.32;98.37;101180.44;5031838;28;20447;-73
2022/12/07 04:06:51;;;;;;;11.45;8.48;;;;;;;-4.27;98.38;101183.69;5032981;28;20095;-71
2022/12/07 04:09:17;;;;;;;13.80;9.88;;;;;;;-4.22;98.81;101171.38;5032716;28;20022;-71
2022/12/07 04:11:43;;;;;;;14.32;8.85;;;;;;;-4.16;98.53;101168.50;5032240;28;20038;-76
2022/12/07 04:14:20;;;;;;;10.40;7.30;;;;;;;-4.08;97.81;101168.22;5032705;28;20025;-73
2022/12/07 04:16:52;;;;;;;12.65;8.88;;;;;;;-4.01;97.70;101166.25;5031873;28;20377;-74
2022/12/07 04:19:20;;;;;;;12.32;9.00;;;;;;;-4.03;97.59;101175.88;5032831;28;20045;-72
2022/12/07 04:21:46;;;;;;;13.25;8.45;;;;;;;-4.04;97.79;101175.03;5032900;28;20037;-71
2022/12/07 04:24:14;;;;;;;15.05;9.57;;;;;;;-4.09;97.90;101164.75;5032518;28;20021;-73
2022/12/07 04:26:40;;;;;;;14.02;8.10;;;;;;;-4.03;98.13;101171.50;5033929;28;20481;-72
2022/12/07 04:29:06;;;;;;;14.70;8.60;;;;;;;-4.16;96.93;101147.72;5031622;28;20024;-76
2022/12/07 04:31:31;;;;;;;13.40;7.80;;;;;;;-4.03;97.64;101170.66;5039232;28;20026;-75
2022/12/07 04:33:57;;;;;;;11.43;8.17;;;;;;;-4.06;96.88;101154.22;5014280;28;20032;-69
2022/12/07 04:36:22;;;;;;;14.03;9.00;;;;;;;-4.20;97.51;101137.50;5014380;28;20461;-75
2022/12/07 04:38:48;;;;;;;14.33;8.70;;;;;;;-4.16;97.20;101145.09;5032077;28;20112;-73
2022/12/07 04:41:13;;;;;;;14.73;10.30;;;;;;;-4.11;97.12;101155.31;5032205;28;20041;-74
2022/12/07 04:43:39;;;;;;;15.03;9.37;;;;;;;-4.12;97.72;101157.09;5032274;28;20071;-76
2022/12/07 04:46:04;;;;;;;9.90;8.00;;;;;;;-4.13;97.72;101152.78;5032376;28;20176;-75
2022/12/07 04:48:30;;;;;;;13.13;8.63;;;;;;;-4.12;97.72;101158.84;5032186;28;20035;-73
2022/12/07 04:50:56;;;;;;;12.43;8.60;;;;;;;-4.09;98.39;101162.16;5032065;28;20029;-72
2022/12/07 04:53:22;;;;;;;16.53;8.90;;;;;;;-4.04;97.80;101154.22;5032135;28;20364;-73
2022/12/07 04:55:48;;;;;;;13.35;9.57;;;;;;;-3.98;97.50;101163.50;5032041;28;20029;-73
2022/12/07 04:58:13;;;;;;;15.27;10.60;;;;;;;-4.00;96.79;101160.97;5032082;28;20349;-73
2022/12/07 05:00:39;;;;;;;15.23;10.30;;;;;;;-4.03;97.23;101150.69;5031691;28;20036;-72
2022/12/07 05:03:05;;;;;;;14.03;9.17;;;;;;;-4.00;96.82;101163.59;5031826;28;20040;-72
2022/12/07 05:05:31;;;;;;;15.10;9.03;;;;;;;-4.03;96.80;101158.50;5014272;28;20112;-75
2022/12/07 05:07:56;;;;;;;15.37;9.77;;;;;;;-3.93;97.11;101161.56;5014340;28;20056;-73
2022/12/07 05:10:22;;;;;;;15.07;9.73;;;;;;;-3.90;96.64;101171.84;5031628;28;20029;-73
2022/12/07 05:12:48;;;;;;;15.40;9.20;;;;;;;-3.95;96.34;101166.84;5031854;28;20030;-73
2022/12/07 05:15:14;;;;;;;13.50;10.63;;;;;;;-3.94;96.54;101170.28;5031715;28;20018;-76
2022/12/07 05:17:40;;;;;;;17.25;8.82;;;;;;;-4.09;96.97;101156.97;5012411;28;20056;-76
2022/12/07 05:20:09;;;;;;;16.07;9.63;;;;;;;-3.97;96.40;101166.06;5031040;28;20474;-73
2022/12/07 05:22:34;;;;;;;19.45;11.32;;;;;;;-3.95;96.69;101168.59;5033714;28;20112;-78
2022/12/07 05:25:00;;;;;;;13.70;9.70;;;;;;;-4.02;95.17;101160.19;5035814;28;20204;-75
2022/12/07 05:27:25;;;;;;;13.47;9.10;;;;;;;-4.08;94.96;101163.00;5035463;28;20076;-72
2022/12/07 05:29:51;;;;;;;12.63;9.13;;;;;;;-4.12;96.13;101170.09;5035786;28;20032;-76
2022/12/07 05:32:17;;;;;;;15.00;9.93;;;;;;;-4.23;96.41;101154.06;5018221;28;20034;-76
2022/12/07 05:34:42;;;;;;;12.37;9.27;;;;;;;-4.19;96.62;101160.00;5035410;28;20106;-75
2022/12/07 05:37:08;;;;;;;12.83;9.33;;;;;;;-4.27;97.19;101157.69;5035761;28;20030;-75
2022/12/07 05:39:42;;;;;;;15.63;11.07;;;;;;;-4.38;97.41;101150.28;5036783;28;20111;-72
2022/12/07 05:42:13;;;;;;;16.35;10.57;;;;;;;-4.20;97.04;101172.16;5055549;28;20043;-73
2022/12/07 05:44:44;;;;;;;12.63;8.73;;;;;;;-4.22;97.65;101163.56;5055349;28;20060;-72
2022/12/07 05:47:10;;;;;;;15.48;10.38;;;;;;;-4.28;97.77;101165.56;5055699;28;20021;-74
2022/12/07 05:49:35;;;;;;;12.40;8.38;;;;;;;-4.48;98.44;101129.91;5037826;28;20028;-75
2022/12/07 05:52:01;;;;;;;16.23;10.27;;;;;;;-4.24;98.29;101165.38;5055848;28;20036;-73
2022/12/07 05:54:27;;;;;;;14.10;10.33;;;;;;;-4.24;98.07;101165.38;5052522;28;20041;-73
2022/12/07 05:56:55;;;;;;;17.83;10.33;;;;;;;-4.29;97.68;101158.66;5035813;28;20741;-74
2022/12/07 05:59:28;;;;;;;17.15;10.85;;;;;;;-4.33;98.54;101168.34;5017818;28;20425;-74
2022/12/07 06:02:00;;;;;;;19.25;12.02;;;;;;;-4.34;98.52;101166.59;5034994;28;20052;-69
2022/12/07 06:04:28;;;;;;;37.67;18.33;;;;;;;-4.39;98.98;101163.34;5018077;28;20037;-72
2022/12/07 06:06:57;;;;;;;27.25;14.30;;;;;;;-4.45;98.59;101159.22;5018673;28;20025;-73
2022/12/07 06:09:25;;;;;;;18.15;11.07;;;;;;;-4.44;99.14;101165.28;5036181;28;20033;-73
2022/12/07 06:14:35;;;;;;;18.35;11.48;;;;;;;-4.34;98.92;101160.56;5035400;28;20477;-73
2022/12/07 06:17:01;;;;;;;14.47;9.67;;;;;;;-4.47;98.17;101139.38;5017665;28;20036;-75
2022/12/07 06:19:27;;;;;;;14.55;9.77;;;;;;;-4.37;98.07;101153.72;5036031;28;20481;-74
2022/12/07 06:21:53;;;;;;;17.57;10.20;;;;;;;-4.37;97.80;101151.13;5037069;28;20034;-72
2022/12/07 06:24:18;;;;;;;12.43;8.52;;;;;;;-4.38;96.99;101152.03;5039412;28;20036;-70
2022/12/07 06:26:44;;;;;;;16.80;9.73;;;;;;;-4.27;97.35;101152.50;5038129;28;20362;-72
2022/12/07 06:29:11;;;;;;;12.43;8.47;;;;;;;-4.22;97.61;101157.50;5019832;28;20022;-72
2022/12/07 06:31:40;;;;;;;15.40;9.25;;;;;;;-4.23;96.83;101148.00;5035744;28;20037;-73
2022/12/07 06:34:17;;;;;;;14.07;8.88;;;;;;;-4.19;97.06;101158.22;5034659;28;20033;-72
2022/12/07 06:36:43;;;;;;;15.75;9.45;;;;;;;-4.24;96.79;101146.31;5035085;28;20036;-73
2022/12/07 06:39:10;;;;;;;14.57;8.48;;;;;;;-4.31;96.89;101148.31;5037393;28;20125;-73
2022/12/07 06:41:45;;;;;;;14.77;8.30;;;;;;;-4.37;96.86;101145.94;5035168;28;20030;-72
2022/12/07 06:44:10;;;;;;;17.80;10.52;;;;;;;-4.34;97.08;101152.75;5036106;28;20091;-73
2022/12/07 06:46:36;;;;;;;22.00;10.37;;;;;;;-4.38;97.33;101145.09;5043821;28;20512;-74
2022/12/07 06:49:02;;;;;;;17.80;10.00;;;;;;;-4.39;97.35;101153.78;5044675;28;20022;-71
2022/12/07 06:51:28;;;;;;;14.35;10.43;;;;;;;-4.32;97.26;101163.97;5044970;28;20017;-72
2022/12/07 06:53:53;;;;;;;14.57;9.10;;;;;;;-4.28;97.73;101157.75;5045021;28;20065;-71
2022/12/07 06:56:19;;;;;;;13.30;9.70;;;;;;;-4.20;96.88;101147.91;5027793;28;20048;-72
2022/12/07 06:58:44;;;;;;;14.30;8.30;;;;;;;-4.12;96.13;101151.88;5047884;28;20033;-73
2022/12/07 07:01:16;;;;;;;15.03;9.63;;;;;;;-4.20;96.26;101148.75;5046509;28;20033;-71
2022/12/07 07:03:42;;;;;;;15.95;7.82;;;;;;;-4.14;96.46;101160.66;5046582;28;20060;-72
2022/12/07 07:06:08;;;;;;;13.43;10.18;;;;;;;-4.09;96.56;101163.91;5046662;28;20056;-74
2022/12/07 07:08:35;;;;;;;14.63;9.17;;;;;;;-4.13;95.16;101160.59;5044128;28;20022;-76
2022/12/07 07:11:00;;;;;;;17.95;9.93;;;;;;;-4.12;95.20;101158.84;5034887;28;20033;-73
2022/12/07 07:13:27;;;;;;;15.60;9.30;;;;;;;-4.11;95.29;101161.38;5017070;28;20548;-73
2022/12/07 07:15:53;;;;;;;14.73;9.30;;;;;;;-4.03;94.74;101170.66;5034707;28;20026;-73
2022/12/07 07:18:19;;;;;;;10.50;8.03;;;;;;;-3.99;93.73;101173.06;5034365;28;20056;-74
2022/12/07 07:20:45;;;;;;;12.07;7.97;;;;;;;-4.15;94.41;101130.34;5034258;28;20276;-73
2022/12/07 07:23:11;;;;;;;9.73;7.63;;;;;;;-4.06;93.70;101162.03;5033930;28;20377;-74
2022/12/07 07:25:37;;;;;;;13.53;8.97;;;;;;;-4.07;93.51;101160.34;5032503;28;20029;-71
2022/12/07 07:28:05;;;;;;;11.90;8.93;;;;;;;-4.04;94.00;101158.56;5033699;28;20018;-72
2022/12/07 07:30:34;;;;;;;13.88;8.52;;;;;;;-3.98;93.51;101164.38;5033784;28;20465;-72
2022/12/07 07:33:01;;;;;;;11.60;7.03;;;;;;;-4.03;93.63;101157.66;5015853;28;20026;-74
2022/12/07 07:35:28;;;;;;;11.63;7.93;;;;;;;-4.03;94.37;101157.66;5033609;28;20469;-73
2022/12/07 07:37:54;;;;;;;12.65;8.13;;;;;;;-3.95;93.94;101159.03;5033396;28;20029;-73
2022/12/07 07:40:20;;;;;;;12.90;8.43;;;;;;;-3.90;93.01;101148.44;5033488;28;20461;-75
2022/12/07 07:42:51;;;;;;;18.30;10.73;;;;;;;-3.89;92.64;101137.13;5033770;28;20021;-73
2022/12/07 07:45:18;;;;;;;12.30;7.68;;;;;;;-3.82;92.40;101154.19;5033080;28;20040;-73
2022/12/07 07:47:44;;;;;;;17.23;8.13;;;;;;;-3.78;93.09;101158.34;5017418;28;20048;-76
2022/12/07 07:50:10;;;;;;;11.13;8.40;;;;;;;-3.80;91.94;101147.16;5033402;28;20029;-71
2022/12/07 07:52:35;;;;;;;11.33;7.53;;;;;;;-3.90;92.45;101151.03;5033023;28;20049;-73
2022/12/07 07:55:01;;;;;;;13.43;8.00;;;;;;;-3.89;93.10;101155.34;5015550;28;20424;-72
2022/12/07 07:57:27;;;;;;;15.83;8.23;;;;;;;-3.84;93.51;101161.19;5033324;28;20075;-73
2022/12/07 07:59:53;;;;;;;9.80;8.07;;;;;;;-3.78;92.83;101160.94;5033447;28;20021;-72
2022/12/07 08:02:19;;;;;;;11.40;7.23;;;;;;;-3.69;92.54;101150.19;5032378;28;20440;-73
2022/12/07 08:04:46;;;;;;;10.77;7.38;;;;;;;-3.64;92.47;101153.44;5033689;28;20064;-71
2022/12/07 08:07:13;;;;;;;11.70;7.53;;;;;;;-3.61;91.41;101157.69;5032781;28;20033;-73
2022/12/07 08:09:38;;;;;;;9.65;6.40;;;;;;;-3.63;91.72;101155.13;5033487;28;20476;-73
2022/12/07 08:12:05;;;;;;;10.30;7.97;;;;;;;-3.62;91.47;101151.63;5033003;28;20029;-72
2022/12/07 08:14:30;;;;;;;17.65;9.13;;;;;;;-3.63;91.72;101149.94;5033204;28;20462;-73
2022/12/07 08:16:56;;;;;;;13.07;7.67;;;;;;;-3.68;92.41;101151.88;5032945;28;20025;-73
2022/12/07 08:19:23;;;;;;;11.77;6.68;;;;;;;-3.77;92.36;101157.44;5034642;28;20049;-75
2022/12/07 08:21:49;;;;;;;10.88;7.30;;;;;;;-3.92;92.76;101138.09;5032620;28;20334;-72
2022/12/07 08:24:15;;;;;;;11.70;7.30;;;;;;;-3.86;93.27;101153.47;5032702;28;20025;-72
2022/12/07 08:26:41;;;;;;;10.43;8.07;;;;;;;-3.80;94.24;101149.75;5032751;28;20571;-73
2022/12/07 08:29:07;;;;;;;12.55;8.95;;;;;;;-3.78;94.11;101147.94;5032777;28;20472;-74
2022/12/07 08:31:32;;;;;;;11.10;7.50;;;;;;;-3.76;94.70;101148.72;5032703;28;20030;-73
2022/12/07 08:33:58;;;;;;;10.77;7.20;;;;;;;-3.85;94.50;101141.28;5032926;28;20068;-72
2022/12/07 08:36:24;;;;;;;12.10;7.37;;;;;;;-3.86;95.73;101139.59;5015031;28;20032;-73
2022/12/07 08:38:50;;;;;;;17.47;8.40;;;;;;;-3.92;96.00;101134.66;5032522;28;20031;-73
2022/12/07 08:41:16;;;;;;;11.20;8.23;;;;;;;-3.92;96.04;101142.44;5032274;28;20421;-74
2022/12/07 08:43:41;;;;;;;12.27;8.20;;;;;;;-4.00;96.37;101134.13;5032442;28;20108;-73
2022/12/07 08:46:10;;;;;;;11.00;7.20;;;;;;;-4.07;96.99;101144.75;5032397;28;20025;-71
2022/12/07 08:48:40;;;;;;;10.35;7.35;;;;;;;-3.99;96.85;101135.81;5032155;28;20469;-73
2022/12/07 08:51:07;;;;;;;12.23;7.32;;;;;;;-4.02;96.13;101122.94;5032132;28;20484;-71
2022/12/07 08:53:35;;;;;;;15.02;8.10;;;;;;;-4.05;96.31;101131.66;5032536;28;20497;-73
2022/12/07 08:56:01;;;;;;;17.90;9.15;;;;;;;-3.98;97.52;101124.50;5014599;28;20113;-72
2022/12/07 08:58:26;;;;;;;12.47;8.43;;;;;;;-3.99;97.24;101118.44;5032491;28;20366;-72
2022/12/07 09:00:52;;;;;;;13.13;9.13;;;;;;;-3.91;97.20;101124.19;5033416;28;20410;-73
2022/12/07 09:03:17;;;;;;;29.37;13.57;;;;;;;-3.81;96.98;101129.84;5032768;28;20052;-74
2022/12/07 09:05:43;;;;;;;35.70;17.33;;;;;;;-3.83;96.83;101116.91;5032755;28;20041;-73
2022/12/07 09:08:09;;;;;;;18.53;8.37;;;;;;;-3.81;96.86;101119.44;5032698;28;20116;-73
2022/12/07 09:10:34;;;;;;;14.07;9.30;;;;;;;-3.79;97.40;101112.41;5032401;28;20349;-71
2022/12/07 09:13:00;;;;;;;13.07;8.63;;;;;;;-3.74;97.45;101115.69;5032555;28;20116;-72
2022/12/07 09:15:27;;;;;;;12.07;7.87;;;;;;;-3.80;97.76;101108.13;5045011;28;20030;-73
2022/12/07 09:17:53;;;;;;;18.60;8.77;;;;;;;-3.93;97.55;101089.56;5044988;28;20340;-71
2022/12/07 09:20:19;;;;;;;13.67;7.97;;;;;;;-3.73;97.02;101106.13;5050172;28;20405;-72
2022/12/07 09:22:45;;;;;;;11.52;6.28;;;;;;;-3.79;96.39;101105.44;5037937;28;20052;-74
2022/12/07 09:25:11;;;;;;;10.60;6.67;;;;;;;-3.72;96.71;101113.88;5032616;28;20465;-74
2022/12/07 09:27:36;;;;;;;10.07;7.00;;;;;;;-3.71;96.15;101120.78;5035783;28;20029;-78
2022/12/07 09:30:03;;;;;;;9.60;7.53;;;;;;;-3.81;96.24;101098.63;5036097;28;20033;-73
2022/12/07 09:32:29;;;;;;;11.15;7.25;;;;;;;-3.89;97.07;101100.69;5035627;28;20032;-74
2022/12/07 09:34:55;;;;;;;9.40;6.30;;;;;;;-3.76;97.53;101112.28;5035769;28;20033;-76
2022/12/07 09:37:20;;;;;;;8.87;6.90;;;;;;;-3.65;97.65;101109.25;5041797;28;20070;-72
2022/12/07 09:39:46;;;;;;;12.57;6.63;;;;;;;-3.54;96.76;101102.69;5042808;28;20102;-71
2022/12/07 09:42:21;;;;;;;12.57;6.17;;;;;;;-3.49;96.05;101095.50;5042525;28;20594;-73
2022/12/07 09:44:46;;;;;;;14.38;8.50;;;;;;;-3.36;95.32;101115.84;5038448;28;20053;-69
2022/12/07 09:47:12;;;;;;;9.83;6.80;;;;;;;-3.41;94.20;101108.22;5035975;28;20103;-74
2022/12/07 09:49:37;;;;;;;9.73;6.27;;;;;;;-3.52;93.86;101095.66;5032718;28;20450;-72
2022/12/07 09:52:17;;;;;;;17.13;10.83;;;;;;;-3.52;93.92;101100.00;5032181;28;20026;-71
2022/12/07 09:54:47;;;;;;;10.55;6.50;;;;;;;-3.53;94.18;101109.56;5014662;28;20025;-73
2022/12/07 09:57:13;;;;;;;11.75;7.47;;;;;;;-3.55;94.18;101094.94;5032121;28;20119;-72
2022/12/07 09:59:40;;;;;;;10.57;6.93;;;;;;;-3.54;93.57;101087.06;5031734;28;20105;-72
2022/12/07 10:02:38;;;;;;;13.38;7.55;;;;;;;-3.47;93.14;101092.84;5032428;28;20017;-75
2022/12/07 10:05:06;;;;;;;10.90;7.75;;;;;;;-3.38;93.33;101097.69;5031871;28;20048;-74
2022/12/07 10:07:32;;;;;;;9.07;6.20;;;;;;;-3.52;92.30;101100.84;5032209;28;20128;-73
2022/12/07 10:09:58;;;;;;;8.70;6.40;;;;;;;-3.59;93.49;101083.81;5017506;28;20105;-72
2022/12/07 10:12:23;;;;;;;8.77;5.83;;;;;;;-3.62;93.12;101065.72;5035556;28;20025;-73
2022/12/07 10:15:04;;;;;;;9.90;6.50;;;;;;;-3.72;92.69;101092.22;5017900;28;20033;-75
2022/12/07 10:17:40;;;;;;;8.80;6.78;;;;;;;-3.83;93.14;101080.47;5036158;28;20094;-74
2022/12/07 10:20:12;;;;;;;10.73;6.40;;;;;;;-3.82;93.85;101076.09;5044432;28;20115;-73
2022/12/07 10:22:38;;;;;;;12.05;8.05;;;;;;;-3.83;93.44;101074.41;5042198;28;20036;-74
2022/12/07 10:25:34;;;;;;;11.13;6.80;;;;;;;-3.81;93.75;101064.78;5042131;28;20089;-71
2022/12/07 10:28:11;;;;;;;10.68;6.75;;;;;;;-3.69;94.03;101071.25;5027952;28;20029;-72
2022/12/07 10:30:52;;;;;;;9.93;6.65;;;;;;;-3.55;94.21;101074.09;5036267;28;20429;-73
2022/12/07 10:33:28;;;;;;;13.13;7.18;;;;;;;-3.57;93.11;101060.31;5036534;28;20064;-73
2022/12/07 10:35:54;;;;;;;12.32;7.78;;;;;;;-3.71;93.42;101068.72;5018749;28;20030;-73
2022/12/07 10:38:20;;;;;;;8.80;6.83;;;;;;;-3.97;93.85;101050.75;5034800;28;20033;-74
2022/12/07 10:40:45;;;;;;;11.23;8.53;;;;;;;-4.17;95.18;101060.19;5034628;28;20056;-73
2022/12/07 10:43:14;;;;;;;10.53;6.80;;;;;;;-4.24;96.63;101076.94;5034548;28;20264;-72
2022/12/07 10:46:18;;;;;;;7.22;5.35;;;;;;;-4.27;97.03;101064.06;5034319;28;20480;-72
2022/12/07 10:49:09;;;;;;;8.57;6.07;;;;;;;-4.41;96.71;101064.59;5032480;28;20075;-72
2022/12/07 10:51:50;;;;;;;12.15;7.78;;;;;;;-4.40;97.21;101068.06;5034629;28;20033;-72
2022/12/07 10:54:21;;;;;;;9.93;6.25;;;;;;;-4.35;97.88;101068.72;5034622;28;20029;-75
2022/12/07 10:57:28;;;;;;;9.82;6.75;;;;;;;-4.24;96.78;101074.34;5034509;28;20060;-73
2022/12/07 11:00:08;;;;;;;12.25;6.75;;;;;;;-4.20;96.60;101064.66;5034325;28;20512;-74
2022/12/07 11:02:38;;;;;;;19.90;6.75;;;;;;;-4.13;96.48;101059.16;5034428;28;20036;-73
2022/12/07 11:05:09;;;;;;;11.65;7.57;;;;;;;-4.06;96.54;101050.19;5033996;28;20044;-72
2022/12/07 11:07:51;;;;;;;12.75;8.52;;;;;;;-4.05;96.36;101038.03;5034105;28;20538;-72
2022/12/07 11:10:39;;;;;;;9.73;7.35;;;;;;;-4.01;95.30;101039.63;5016291;28;20030;-74
2022/12/07 11:13:29;;;;;;;10.65;7.85;;;;;;;-4.09;95.08;101042.50;5033871;28;20449;-72
2022/12/07 11:16:13;;;;;;;10.32;6.88;;;;;;;-3.97;95.25;101040.34;5033845;28;20377;-74
2022/12/07 11:18:58;;;;;;;10.23;5.95;;;;;;;-3.91;94.40;101034.88;5033787;28;20038;-74
2022/12/07 11:21:31;;;;;;;15.02;7.88;;;;;;;-3.93;93.19;101039.28;5015739;28;20107;-71
2022/12/07 11:23:59;;;;;;;10.35;6.80;;;;;;;-3.91;93.39;101040.06;5033776;28;20030;-71
2022/12/07 11:26:40;;;;;;;10.75;6.50;;;;;;;-3.81;93.38;101033.56;5034091;28;20065;-73
2022/12/07 11:29:18;;;;;;;9.05;6.47;;;;;;;-3.81;92.29;101036.16;5033935;28;20035;-74
2022/12/07 11:32:01;;;;;;;10.20;6.50;;;;;;;-3.88;91.04;101039.94;5033787;28;20032;-72
2022/12/07 11:34:30;;;;;;;10.75;6.63;;;;;;;-4.18;90.97;101029.88;5033761;28;20091;-72